Time;durP1;ratioP1;P1;durP2;ratioP2;P2;SDS_P1;SDS_P2;PMS_P1;PMS_P2;Temp;Humidity;BMP_temperature;BMP_pressure;BME280_temperature;BME280_humidity;BME280_pressure;Samples;Min_cycle;Max_cycle;Signal;HPM_P1;HPM_P2
2023/01/04 00:02:08;;;;;;;28.85;21.25;;;6.00;99.90;;;;;;5023898;28;20863;-75
2023/01/04 00:04:35;;;;;;;26.07;19.90;;;6.00;99.90;;;;;;5014430;28;20214;-75
2023/01/04 00:07:02;;;;;;;26.90;20.10;;;6.10;99.90;;;;;;5026169;28;20567;-75
2023/01/04 00:09:29;;;;;;;24.37;18.70;;;6.00;99.90;;;;;;5022293;28;20867;-75
2023/01/04 00:11:56;;;;;;;28.20;21.57;;;6.10;99.90;;;;;;5022236;28;20701;-75
2023/01/04 00:14:24;;;;;;;28.77;21.13;;;6.10;99.90;;;;;;5022879;28;20464;-75
2023/01/04 00:16:51;;;;;;;22.20;18.87;;;6.00;99.90;;;;;;5018372;28;20535;-75
2023/01/04 00:19:18;;;;;;;29.43;21.67;;;6.00;99.90;;;;;;5022636;28;20470;-75
2023/01/04 00:21:45;;;;;;;31.57;22.10;;;6.10;99.90;;;;;;5023953;28;20473;-75
2023/01/04 00:24:14;;;;;;;27.43;20.50;;;6.00;99.90;;;;;;5015215;28;20559;-75
2023/01/04 00:26:41;;;;;;;29.20;21.43;;;6.00;99.90;;;;;;5021838;28;20482;-75
2023/01/04 00:29:11;;;;;;;25.10;18.83;;;6.10;99.90;;;;;;5027829;28;20494;-76
2023/01/04 00:31:39;;;;;;;25.60;19.43;;;6.10;99.90;;;;;;5025108;28;20465;-77
2023/01/04 00:34:07;;;;;;;30.07;21.67;;;6.00;99.90;;;;;;5026580;28;20532;-77
2023/01/04 00:36:34;;;;;;;29.80;20.60;;;6.00;99.90;;;;;;5012237;28;20467;-77
2023/01/04 00:39:08;;;;;;;29.20;23.07;;;6.10;99.90;;;;;;5032723;28;20936;-77
2023/01/04 00:41:40;;;;;;;34.63;23.87;;;6.10;99.90;;;;;;5015216;28;20906;-77
2023/01/04 00:44:08;;;;;;;28.50;21.43;;;6.00;99.90;;;;;;5018977;28;20511;-77
2023/01/04 00:46:36;;;;;;;35.27;22.17;;;5.90;99.90;;;;;;5024021;28;20469;-77
2023/01/04 00:49:05;;;;;;;30.63;21.63;;;5.90;99.90;;;;;;5023506;28;20466;-77
2023/01/04 00:51:33;;;;;;;44.03;25.77;;;5.90;99.90;;;;;;5019135;28;20245;-77
2023/01/04 00:54:01;;;;;;;27.33;21.60;;;5.90;99.90;;;;;;5024732;28;20515;-77
2023/01/04 00:56:29;;;;;;;38.23;23.23;;;6.00;99.90;;;;;;5027061;28;20618;-77
2023/01/04 00:58:57;;;;;;;32.43;23.90;;;5.90;99.90;;;;;;5024126;28;20823;-77
2023/01/04 01:01:24;;;;;;;152.10;39.73;;;5.90;99.90;;;;;;5019766;28;20462;-76
2023/01/04 01:03:53;;;;;;;148.60;44.10;;;5.80;99.90;;;;;;5022960;28;20493;-77
2023/01/04 01:06:23;;;;;;;102.75;33.63;;;5.60;99.90;;;;;;5033859;28;20821;-77
2023/01/04 01:08:50;;;;;;;38.07;25.50;;;5.60;99.90;;;;;;5025250;28;20556;-75
2023/01/04 01:11:18;;;;;;;46.97;28.03;;;5.60;99.90;;;;;;5024410;28;20495;-75
2023/01/04 01:13:45;;;;;;;30.20;21.37;;;5.60;99.90;;;;;;5019026;28;20489;-75
2023/01/04 01:16:16;;;;;;;36.43;25.57;;;5.60;99.90;;;;;;5025366;28;20469;-75
2023/01/04 01:18:44;;;;;;;40.10;26.73;;;5.60;99.90;;;;;;5023336;28;20804;-75
2023/01/04 01:21:13;;;;;;;64.97;33.90;;;5.50;99.90;;;;;;5018776;28;20468;-75
2023/01/04 01:23:42;;;;;;;37.53;26.30;;;5.60;99.90;;;;;;5019157;28;21015;-75
2023/01/04 01:26:12;;;;;;;30.70;23.47;;;5.60;99.90;;;;;;5012299;28;20840;-76
2023/01/04 01:28:39;;;;;;;35.57;23.70;;;5.60;99.90;;;;;;5021614;28;20481;-75
2023/01/04 01:31:08;;;;;;;31.90;24.67;;;5.60;99.90;;;;;;5015559;28;20873;-75
2023/01/04 01:33:36;;;;;;;39.07;26.53;;;5.60;99.90;;;;;;5020383;28;20584;-75
2023/01/04 01:36:04;;;;;;;31.83;24.10;;;5.70;99.90;;;;;;5018489;28;20472;-75
2023/01/04 01:38:31;;;;;;;33.10;25.50;;;5.70;99.90;;;;;;5026666;28;20465;-75
2023/01/04 01:40:59;;;;;;;44.07;25.37;;;5.70;99.90;;;;;;5031367;28;20936;-75
2023/01/04 01:43:48;;;;;;;45.37;26.37;;;5.80;99.90;;;;;;5041531;28;20962;-75
2023/01/04 01:46:18;;;;;;;32.83;24.67;;;5.70;99.90;;;;;;5026220;28;20518;-75
2023/01/04 01:48:45;;;;;;;49.60;27.00;;;5.70;99.90;;;;;;5014214;28;20462;-75
2023/01/04 01:51:16;;;;;;;66.57;32.10;;;5.70;99.90;;;;;;5030620;28;20549;-75
2023/01/04 01:53:46;;;;;;;131.60;44.43;;;5.60;99.90;;;;;;5023976;28;20968;-75
2023/01/04 01:56:17;;;;;;;166.63;47.33;;;5.60;99.90;;;;;;5031563;28;20945;-75
2023/01/04 01:58:49;;;;;;;55.47;25.20;;;5.40;99.90;;;;;;5021193;28;20531;-75
2023/01/04 02:01:16;;;;;;;68.63;34.10;;;5.40;99.90;;;;;;5019328;28;20544;-75
2023/01/04 02:03:43;;;;;;;68.50;35.10;;;5.40;99.90;;;;;;5018651;28;20523;-75
2023/01/04 02:06:17;;;;;;;120.83;38.53;;;5.40;99.90;;;;;;5024925;28;20449;-75
2023/01/04 02:08:44;;;;;;;111.45;39.88;;;5.40;99.90;;;;;;5014375;28;20488;-75
2023/01/04 02:11:11;;;;;;;43.57;23.53;;;5.40;99.90;;;;;;5022762;28;20261;-75
2023/01/04 02:16:37;;;;;;;37.97;24.23;;;5.40;99.90;;;;;;5026412;28;20960;-75
2023/01/04 02:19:24;;;;;;;213.80;57.10;;;5.40;99.90;;;;;;5017821;28;20781;-75
2023/01/04 02:22:09;;;;;;;165.55;40.40;;;5.50;99.90;;;;;;5021865;28;20929;-75
2023/01/04 02:25:00;;;;;;;176.40;47.43;;;5.30;99.90;;;;;;5026919;28;20523;-75
2023/01/04 02:27:44;;;;;;;34.33;21.40;;;5.30;99.90;;;;;;5025761;28;20458;-75
2023/01/04 02:30:42;;;;;;;51.87;25.60;;;5.20;99.90;;;;;;5023105;28;20525;-75
2023/01/04 02:33:22;;;;;;;67.57;27.13;;;5.10;99.90;;;;;;5024821;28;20574;-75
2023/01/04 02:36:01;;;;;;;84.37;31.80;;;4.80;99.90;;;;;;5025294;28;20891;-75
2023/01/04 02:38:32;;;;;;;78.80;35.33;;;4.90;99.90;;;;;;5029215;28;20465;-75
2023/01/04 02:41:05;;;;;;;48.13;24.93;;;4.80;99.90;;;;;;5030353;28;20516;-75
2023/01/04 02:46:33;;;;;;;82.33;28.00;;;4.70;99.90;;;;;;5021590;28;20952;-75
2023/01/04 02:51:47;;;;;;;49.23;23.70;;;4.60;99.90;;;;;;5026906;28;20522;-75
2023/01/04 02:54:18;;;;;;;101.53;37.13;;;4.50;99.90;;;;;;5015989;28;20586;-75
2023/01/04 02:57:04;;;;;;;114.97;37.67;;;4.40;99.90;;;;;;5019495;28;20466;-75
2023/01/04 02:59:50;;;;;;;47.58;24.27;;;4.30;99.90;;;;;;5029255;28;20493;-75
2023/01/04 03:08:27;;;;;;;55.00;27.63;;;4.30;99.90;;;;;;5028101;28;20461;-75
2023/01/04 03:10:59;;;;;;;125.90;48.20;;;4.40;99.90;;;;;;5018387;28;20735;-75
2023/01/04 03:13:28;;;;;;;37.67;22.23;;;4.40;99.90;;;;;;5016214;28;20937;-75
2023/01/04 03:16:01;;;;;;;71.30;30.27;;;4.30;99.90;;;;;;5017873;28;20488;-75
2023/01/04 03:18:31;;;;;;;117.57;33.37;;;4.20;99.90;;;;;;5032839;28;20546;-75
2023/01/04 03:21:03;;;;;;;49.03;25.20;;;4.20;99.90;;;;;;5030082;28;20959;-75
2023/01/04 03:35:26;;;;;;;46.17;24.07;;;4.00;99.90;;;;;;5026476;28;20933;-75
2023/01/04 03:49:23;;;;;;;87.90;32.27;;;4.00;99.90;;;;;;5020181;28;20468;-75
2023/01/04 03:51:54;;;;;;;72.07;27.50;;;4.10;99.90;;;;;;5027788;28;20441;-75
2023/01/04 03:54:28;;;;;;;80.07;29.70;;;4.00;99.90;;;;;;5014345;28;20559;-75
2023/01/04 03:56:56;;;;;;;77.40;32.00;;;4.00;99.90;;;;;;5027935;28;20481;-75
2023/01/04 03:59:23;;;;;;;52.23;23.40;;;3.90;99.90;;;;;;5024609;28;20866;-75
2023/01/04 04:01:51;;;;;;;72.03;34.70;;;3.90;99.90;;;;;;5023658;28;20515;-75
2023/01/04 04:09:48;;;;;;;75.10;31.10;;;4.00;99.90;;;;;;5016421;28;20464;-75
2023/01/04 04:12:15;;;;;;;59.88;28.90;;;4.10;99.90;;;;;;5024301;28;20563;-75
2023/01/04 04:14:42;;;;;;;58.37;28.00;;;4.20;99.90;;;;;;5017390;28;20687;-75
2023/01/04 04:17:09;;;;;;;47.33;25.60;;;4.10;99.90;;;;;;5022750;28;20559;-75
2023/01/04 04:19:36;;;;;;;45.63;26.87;;;4.10;99.90;;;;;;5035333;28;20519;-75
2023/01/04 04:22:03;;;;;;;30.07;20.87;;;4.10;99.90;;;;;;5025431;28;20453;-75
2023/01/04 04:24:30;;;;;;;26.97;19.13;;;4.20;99.90;;;;;;5025437;28;20878;-75
2023/01/04 04:26:58;;;;;;;34.30;22.17;;;4.30;99.90;;;;;;5016897;28;20533;-75
2023/01/04 04:29:25;;;;;;;29.97;21.27;;;4.40;99.90;;;;;;5024844;28;20669;-75
2023/01/04 04:31:52;;;;;;;28.97;21.90;;;4.50;99.90;;;;;;5029430;28;20496;-75
2023/01/04 04:34:19;;;;;;;32.97;22.00;;;4.40;99.90;;;;;;5022785;28;20960;-75
2023/01/04 04:36:46;;;;;;;37.57;22.87;;;4.50;99.90;;;;;;5022915;28;20461;-75
2023/01/04 04:39:13;;;;;;;96.13;35.13;;;4.50;99.90;;;;;;5018885;28;20470;-75
2023/01/04 04:41:40;;;;;;;86.87;32.47;;;4.60;99.90;;;;;;5025651;28;20486;-75
2023/01/04 04:44:10;;;;;;;62.10;25.47;;;4.70;99.90;;;;;;5032313;28;21193;-75
2023/01/04 04:46:37;;;;;;;73.10;27.87;;;4.60;99.90;;;;;;5017374;28;20454;-75
2023/01/04 04:49:05;;;;;;;89.30;29.53;;;4.50;99.90;;;;;;5025252;28;20564;-75
2023/01/04 04:51:32;;;;;;;226.70;49.23;;;4.50;99.90;;;;;;5019443;28;21001;-75
2023/01/04 04:53:59;;;;;;;111.70;32.13;;;4.40;99.90;;;;;;5017904;28;20512;-75
2023/01/04 04:56:26;;;;;;;81.27;28.37;;;4.40;99.90;;;;;;5023621;28;20893;-75
2023/01/04 04:58:53;;;;;;;81.57;32.17;;;4.40;99.90;;;;;;5019846;28;20496;-75
2023/01/04 05:01:22;;;;;;;57.03;26.47;;;4.30;99.90;;;;;;5025266;28;20804;-75
2023/01/04 05:03:49;;;;;;;39.47;24.10;;;4.30;99.90;;;;;;5022793;28;20523;-75
2023/01/04 05:06:16;;;;;;;43.17;23.83;;;4.30;99.90;;;;;;5022618;28;20461;-75
2023/01/04 05:08:43;;;;;;;92.53;34.20;;;4.30;99.90;;;;;;5034364;28;20922;-75
2023/01/04 05:11:12;;;;;;;129.93;41.78;;;4.40;99.90;;;;;;5015751;28;20588;-75
2023/01/04 05:13:38;;;;;;;31.27;20.48;;;4.50;99.90;;;;;;5019939;28;20298;-75
2023/01/04 05:16:07;;;;;;;32.17;20.93;;;4.40;99.90;;;;;;5024623;28;20725;-75
2023/01/04 05:18:36;;;;;;;35.73;20.27;;;4.50;99.90;;;;;;5026503;28;20461;-75
2023/01/04 05:21:03;;;;;;;28.33;21.33;;;4.60;99.90;;;;;;5020703;28;20530;-75
2023/01/04 05:23:30;;;;;;;31.10;21.00;;;4.50;99.90;;;;;;5027652;28;20494;-75
2023/01/04 05:25:59;;;;;;;25.27;18.38;;;4.50;99.90;;;;;;5019633;28;20519;-75
2023/01/04 05:28:27;;;;;;;27.90;17.77;;;4.60;99.90;;;;;;5023763;28;20272;-75
2023/01/04 05:30:54;;;;;;;28.30;18.40;;;4.50;99.90;;;;;;5028053;28;21017;-75
2023/01/04 05:33:22;;;;;;;33.73;21.90;;;4.60;99.90;;;;;;5036061;28;20457;-75
2023/01/04 05:35:52;;;;;;;31.43;20.67;;;4.60;99.90;;;;;;5028431;28;20456;-75
2023/01/04 05:38:20;;;;;;;27.07;19.97;;;4.60;99.90;;;;;;5025511;28;20449;-75
2023/01/04 05:40:49;;;;;;;20.70;15.67;;;4.60;99.90;;;;;;5020559;28;20817;-75
2023/01/04 05:43:16;;;;;;;25.43;18.40;;;4.60;99.90;;;;;;5027803;28;20493;-75
2023/01/04 05:45:47;;;;;;;24.33;17.93;;;4.60;99.90;;;;;;5016146;28;20528;-75
2023/01/04 05:48:14;;;;;;;32.07;21.50;;;4.60;99.90;;;;;;5034722;28;20450;-75
2023/01/04 05:50:41;;;;;;;35.13;23.13;;;4.60;99.90;;;;;;5018996;28;20454;-75
2023/01/04 05:53:09;;;;;;;26.47;19.20;;;4.60;99.90;;;;;;5021598;28;20457;-75
2023/01/04 05:55:36;;;;;;;23.93;18.13;;;4.60;99.90;;;;;;5023282;28;20546;-77
2023/01/04 05:58:03;;;;;;;26.17;18.60;;;4.50;99.90;;;;;;5030031;28;20469;-77
2023/01/04 06:00:31;;;;;;;41.83;21.38;;;4.60;99.90;;;;;;5023340;28;20844;-76
2023/01/04 06:02:58;;;;;;;29.93;19.43;;;4.80;99.90;;;;;;5026475;28;20269;-77
2023/01/04 06:05:25;;;;;;;74.00;29.80;;;4.80;99.90;;;;;;5027718;28;20927;-77
2023/01/04 06:07:53;;;;;;;118.80;34.90;;;4.80;99.90;;;;;;5024709;28;20553;-77
2023/01/04 06:10:21;;;;;;;228.00;58.97;;;4.90;99.90;;;;;;5023397;28;20466;-77
2023/01/04 06:12:49;;;;;;;63.83;25.00;;;4.70;99.90;;;;;;5027460;28;20204;-76
2023/01/04 06:15:16;;;;;;;57.07;24.80;;;4.60;99.90;;;;;;5024991;28;20579;-77
2023/01/04 06:17:43;;;;;;;36.60;20.07;;;4.60;99.90;;;;;;5022877;28;20457;-77
2023/01/04 06:20:11;;;;;;;28.73;18.47;;;4.40;99.90;;;;;;5026096;28;20512;-76
2023/01/04 06:22:39;;;;;;;66.97;25.17;;;4.40;99.90;;;;;;5023579;28;20512;-77
2023/01/04 06:25:07;;;;;;;29.93;20.70;;;4.40;99.90;;;;;;5024199;28;20490;-76
2023/01/04 06:27:35;;;;;;;47.10;27.50;;;4.40;99.90;;;;;;5023966;28;20462;-77
2023/01/04 06:30:02;;;;;;;34.53;21.27;;;4.50;99.90;;;;;;5021098;28;20977;-77
2023/01/04 06:32:29;;;;;;;39.10;25.13;;;4.40;99.90;;;;;;5022799;28;20543;-77
2023/01/04 06:34:56;;;;;;;54.77;24.83;;;4.40;99.90;;;;;;5025324;28;20489;-77
2023/01/04 06:37:23;;;;;;;32.10;21.77;;;4.40;99.90;;;;;;5024945;28;20469;-77
2023/01/04 06:39:50;;;;;;;27.13;19.63;;;4.50;99.90;;;;;;5026660;28;20485;-77
2023/01/04 06:45:03;;;;;;;69.87;26.47;;;4.60;99.90;;;;;;5019274;28;20441;-77
2023/01/04 06:47:30;;;;;;;63.43;26.67;;;4.60;99.90;;;;;;5013648;28;20575;-77
2023/01/04 06:49:57;;;;;;;36.77;20.73;;;4.70;99.90;;;;;;5027305;28;20780;-77
2023/01/04 06:52:24;;;;;;;46.97;22.07;;;4.70;99.90;;;;;;5024039;28;20485;-76
2023/01/04 06:54:51;;;;;;;75.10;25.60;;;4.70;99.90;;;;;;5023637;28;20531;-76
2023/01/04 06:57:18;;;;;;;60.30;24.63;;;4.60;99.90;;;;;;5032016;28;20974;-76
2023/01/04 06:59:45;;;;;;;32.37;20.77;;;4.70;99.90;;;;;;5020880;28;20515;-76
2023/01/04 07:02:16;;;;;;;91.40;34.23;;;4.70;99.90;;;;;;5028631;28;20458;-76
2023/01/04 07:04:43;;;;;;;51.53;24.47;;;4.60;99.90;;;;;;5020872;28;20543;-76
2023/01/04 07:07:10;;;;;;;43.97;24.30;;;4.60;99.90;;;;;;5010377;28;20567;-76
2023/01/04 07:09:38;;;;;;;82.53;28.70;;;4.60;99.90;;;;;;5011633;28;20469;-76
2023/01/04 07:12:06;;;;;;;211.23;47.73;;;4.70;99.90;;;;;;5012018;28;20830;-76
2023/01/04 07:14:32;;;;;;;114.33;32.00;;;4.60;99.90;;;;;;5027995;28;20525;-76
2023/01/04 07:16:59;;;;;;;64.97;25.23;;;4.70;99.90;;;;;;5023088;28;20546;-76
2023/01/04 07:19:28;;;;;;;59.67;22.57;;;4.50;99.90;;;;;;5023327;28;20520;-76
2023/01/04 07:21:57;;;;;;;37.43;20.13;;;4.60;99.90;;;;;;5024638;28;20527;-76
2023/01/04 07:24:24;;;;;;;21.03;16.37;;;4.60;99.90;;;;;;5021473;28;20454;-76
2023/01/04 07:26:51;;;;;;;26.67;16.20;;;4.50;99.90;;;;;;5019810;28;20913;-76
2023/01/04 07:29:18;;;;;;;24.13;15.30;;;4.60;99.90;;;;;;5029021;28;20450;-76
2023/01/04 07:31:47;;;;;;;27.30;15.50;;;4.60;99.90;;;;;;5024072;28;21000;-76
2023/01/04 07:34:15;;;;;;;25.10;16.83;;;4.60;99.90;;;;;;5022470;28;21008;-76
2023/01/04 07:36:43;;;;;;;30.57;18.00;;;4.70;99.90;;;;;;5024612;28;20454;-76
2023/01/04 07:39:11;;;;;;;29.73;17.93;;;4.70;99.90;;;;;;5028166;28;20485;-76
2023/01/04 07:41:39;;;;;;;135.97;82.77;;;4.70;99.90;;;;;;5014020;28;20828;-76
2023/01/04 07:44:08;;;;;;;139.27;83.73;;;4.70;99.90;;;;;;5022129;28;20801;-76
2023/01/04 07:46:35;;;;;;;54.10;37.50;;;4.70;99.90;;;;;;5023463;28;20466;-76
2023/01/04 07:49:03;;;;;;;24.57;16.43;;;4.70;99.90;;;;;;5027081;28;20464;-76
2023/01/04 07:51:30;;;;;;;21.23;12.07;;;4.70;99.90;;;;;;5024477;28;20652;-76
2023/01/04 07:53:59;;;;;;;21.77;12.97;;;4.80;99.90;;;;;;5019037;28;20762;-76
2023/01/04 07:56:26;;;;;;;21.07;13.43;;;4.70;99.90;;;;;;5019249;28;20521;-76
2023/01/04 07:58:56;;;;;;;17.27;11.10;;;4.80;99.90;;;;;;5011809;28;20915;-76
2023/01/04 08:01:24;;;;;;;19.30;13.50;;;4.80;99.90;;;;;;5022213;28;20944;-76
2023/01/04 08:03:51;;;;;;;49.73;30.83;;;4.80;99.90;;;;;;5020335;28;20466;-75
2023/01/04 08:06:20;;;;;;;35.03;22.90;;;4.80;99.90;;;;;;5020015;28;20881;-76
2023/01/04 08:08:48;;;;;;;22.30;15.93;;;4.80;99.90;;;;;;5020629;28;20218;-76
2023/01/04 08:11:18;;;;;;;32.60;23.37;;;4.90;99.90;;;;;;5021631;28;20301;-76
2023/01/04 08:13:45;;;;;;;53.73;35.20;;;4.80;99.90;;;;;;5022574;28;20537;-76
2023/01/04 08:16:21;;;;;;;21.77;15.40;;;4.90;99.90;;;;;;5025275;28;20521;-76
2023/01/04 08:18:48;;;;;;;23.50;14.03;;;5.00;99.90;;;;;;5022291;28;20461;-76
2023/01/04 08:21:15;;;;;;;16.40;11.63;;;5.00;99.90;;;;;;5018134;28;20477;-76
2023/01/04 08:23:42;;;;;;;20.43;11.93;;;5.00;99.90;;;;;;5013880;28;20471;-76
2023/01/04 08:26:12;;;;;;;22.50;13.00;;;5.00;99.90;;;;;;5016769;28;20450;-76
2023/01/04 08:28:41;;;;;;;21.20;18.60;;;5.00;99.90;;;;;;5026554;28;20555;-76
2023/01/04 08:31:10;;;;;;;19.23;15.83;;;5.10;99.90;;;;;;5022666;28;20464;-76
2023/01/04 08:33:39;;;;;;;21.80;16.53;;;5.20;99.90;;;;;;5023558;28;20464;-75
2023/01/04 08:36:11;;;;;;;18.53;12.37;;;5.10;99.90;;;;;;5019254;28;20834;-76
2023/01/04 08:38:38;;;;;;;19.77;10.80;;;5.30;99.90;;;;;;5025576;28;20480;-76
2023/01/04 08:41:05;;;;;;;17.60;13.63;;;5.30;99.90;;;;;;5022418;28;20790;-76
2023/01/04 08:43:32;;;;;;;18.03;15.80;;;5.30;99.90;;;;;;5014473;28;20770;-76
2023/01/04 08:46:00;;;;;;;25.20;16.38;;;5.30;99.90;;;;;;5021780;28;20895;-75
2023/01/04 08:48:27;;;;;;;25.23;16.50;;;5.30;99.90;;;;;;5014852;28;20199;-76
2023/01/04 08:50:54;;;;;;;23.77;13.03;;;5.30;99.90;;;;;;5022936;28;20545;-76
2023/01/04 08:53:21;;;;;;;17.67;10.73;;;5.40;99.90;;;;;;5016597;28;20531;-76
2023/01/04 08:55:51;;;;;;;13.77;10.50;;;5.40;99.90;;;;;;5026744;28;20476;-76
2023/01/04 08:58:19;;;;;;;15.67;10.60;;;5.40;99.90;;;;;;5026798;28;20454;-76
2023/01/04 09:00:46;;;;;;;21.73;15.77;;;5.30;99.90;;;;;;5022382;28;20913;-76
2023/01/04 09:03:14;;;;;;;24.42;16.50;;;5.40;99.90;;;;;;5020378;28;20524;-76
2023/01/04 09:05:41;;;;;;;16.87;11.00;;;5.40;99.90;;;;;;5027416;28;20539;-76
2023/01/04 09:08:08;;;;;;;15.90;11.40;;;5.30;99.90;;;;;;5012375;28;20469;-76
2023/01/04 09:10:37;;;;;;;23.07;14.30;;;5.30;99.90;;;;;;5015028;28;20496;-76
2023/01/04 09:13:04;;;;;;;17.53;13.30;;;5.40;99.90;;;;;;5014479;28;20466;-76
2023/01/04 09:15:31;;;;;;;16.77;13.00;;;5.50;99.90;;;;;;5016772;28;20513;-76
2023/01/04 09:17:58;;;;;;;21.83;13.80;;;5.40;99.90;;;;;;5017030;28;20530;-76
2023/01/04 09:20:27;;;;;;;19.20;13.77;;;5.30;99.90;;;;;;5020463;28;20930;-76
2023/01/04 09:22:56;;;;;;;22.13;14.43;;;5.20;99.90;;;;;;5012192;28;20466;-76
2023/01/04 09:25:23;;;;;;;25.87;14.17;;;5.10;99.90;;;;;;5010929;28;20458;-76
2023/01/04 09:27:50;;;;;;;25.50;14.40;;;5.00;99.90;;;;;;5010971;28;20462;-76
2023/01/04 09:30:17;;;;;;;21.20;14.23;;;5.20;99.90;;;;;;5014868;28;20489;-76
2023/01/04 09:32:44;;;;;;;18.10;13.97;;;5.30;99.90;;;;;;5008107;28;20469;-76
2023/01/04 09:35:11;;;;;;;17.00;12.20;;;5.20;99.90;;;;;;5012693;28;20814;-76
2023/01/04 09:37:39;;;;;;;21.33;13.60;;;5.20;99.90;;;;;;5014931;28;20470;-76
2023/01/04 09:40:10;;;;;;;17.30;7.97;;;5.30;99.90;;;;;;5015939;28;20968;-77
2023/01/04 09:42:41;;;;;;;20.80;13.13;;;5.40;99.90;;;;;;5015260;28;20497;-76
2023/01/04 09:45:16;;;;;;;16.93;12.97;;;5.50;99.90;;;;;;5016028;28;20496;-75
2023/01/04 09:47:48;;;;;;;14.80;10.67;;;5.40;99.90;;;;;;5010252;28;20465;-76
2023/01/04 09:50:21;;;;;;;16.10;10.63;;;5.40;99.90;;;;;;5008614;28;20915;-76
2023/01/04 09:52:59;;;;;;;11.23;7.47;;;5.50;99.90;;;;;;5022337;28;20520;-76
2023/01/04 09:55:30;;;;;;;15.10;10.27;;;5.50;99.90;;;;;;5011212;28;21014;-76
2023/01/04 09:58:02;;;;;;;10.27;7.33;;;5.60;99.90;;;;;;5017134;28;20956;-76
2023/01/04 10:00:32;;;;;;;10.80;6.63;;;5.60;99.90;;;;;;5018981;28;20871;-76
2023/01/04 10:03:03;;;;;;;7.27;6.40;;;5.70;99.90;;;;;;5023867;28;20461;-76
2023/01/04 10:05:34;;;;;;;7.43;5.37;;;5.60;99.90;;;;;;5028117;28;20481;-76
2023/01/04 10:08:03;;;;;;;6.60;4.13;;;5.70;99.90;;;;;;5026824;28;20663;-76
2023/01/04 10:10:47;;;;;;;7.40;4.20;;;5.70;99.90;;;;;;5025184;28;20470;-76
2023/01/04 10:13:26;;;;;;;5.40;3.73;;;5.60;99.90;;;;;;5023196;28;20459;-76
2023/01/04 10:16:01;;;;;;;5.53;4.50;;;5.60;99.90;;;;;;5026918;28;20489;-75
2023/01/04 10:18:34;;;;;;;9.63;6.43;;;5.70;99.90;;;;;;5020528;28;20454;-76
2023/01/04 10:21:13;;;;;;;9.30;4.20;;;5.80;99.90;;;;;;5015418;28;20496;-76
2023/01/04 10:23:58;;;;;;;4.70;4.13;;;5.70;99.90;;;;;;5025935;28;20828;-76
2023/01/04 10:26:31;;;;;;;5.43;4.00;;;5.70;99.90;;;;;;5016070;28;20461;-76
2023/01/04 10:29:23;;;;;;;4.10;3.17;;;5.60;99.90;;;;;;5023374;28;20446;-76
2023/01/04 10:31:57;;;;;;;5.40;4.13;;;5.70;99.90;;;;;;5022956;28;20457;-76
2023/01/04 10:34:26;;;;;;;5.93;4.43;;;5.80;99.90;;;;;;5022817;28;20863;-76
2023/01/04 10:36:58;;;;;;;6.77;5.17;;;5.90;99.90;;;;;;5023218;28;20486;-76
2023/01/04 10:39:30;;;;;;;6.10;3.80;;;5.90;99.90;;;;;;5025872;28;20529;-76
2023/01/04 10:41:59;;;;;;;6.13;3.43;;;5.90;99.90;;;;;;5022905;28;20485;-75
2023/01/04 10:44:36;;;;;;;6.95;4.85;;;6.00;99.90;;;;;;5017646;28;20850;-75
2023/01/04 10:47:10;;;;;;;6.75;3.55;;;6.00;99.90;;;;;;5015831;28;20203;-76
2023/01/04 10:49:42;;;;;;;4.47;2.80;;;6.00;99.90;;;;;;5027569;28;20238;-76
2023/01/04 10:52:16;;;;;;;4.73;3.13;;;6.10;99.90;;;;;;5022493;28;20466;-76
2023/01/04 10:54:48;;;;;;;4.60;3.13;;;6.10;99.90;;;;;;5023269;28;20463;-76
2023/01/04 10:57:21;;;;;;;4.20;3.60;;;6.10;99.90;;;;;;5020648;28;20591;-75
2023/01/04 10:59:53;;;;;;;4.20;3.67;;;6.00;99.90;;;;;;5024104;28;20485;-76
2023/01/04 11:02:27;;;;;;;5.50;3.63;;;6.00;99.90;;;;;;5021027;28;20466;-76
2023/01/04 11:04:59;;;;;;;4.70;3.23;;;5.90;99.90;;;;;;5024842;28;20515;-75
2023/01/04 11:07:33;;;;;;;3.90;3.13;;;5.90;99.90;;;;;;5022905;28;20458;-76
2023/01/04 11:10:06;;;;;;;5.10;3.70;;;5.90;99.90;;;;;;5025397;28;21330;-76
2023/01/04 11:12:33;;;;;;;5.60;2.80;;;6.00;99.90;;;;;;5020740;28;20554;-76
2023/01/04 11:15:00;;;;;;;4.73;3.00;;;5.90;99.90;;;;;;5024241;28;20455;-76
2023/01/04 11:17:30;;;;;;;4.07;3.07;;;5.90;99.90;;;;;;5017889;28;20517;-76
2023/01/04 11:19:57;;;;;;;3.63;2.50;;;5.90;99.90;;;;;;5026524;28;20564;-76
2023/01/04 11:22:29;;;;;;;4.80;2.97;;;6.00;99.90;;;;;;5017999;28;20538;-76
2023/01/04 11:25:02;;;;;;;3.70;3.07;;;6.10;99.90;;;;;;5019164;28;20469;-75
2023/01/04 11:27:35;;;;;;;4.20;3.20;;;6.20;99.90;;;;;;5015098;28;20508;-76
2023/01/04 11:30:05;;;;;;;4.10;3.13;;;6.20;99.90;;;;;;5028173;28;20596;-76
2023/01/04 11:32:39;;;;;;;5.83;4.23;;;6.00;99.90;;;;;;5032227;28;20995;-76
2023/01/04 11:35:07;;;;;;;3.87;2.87;;;6.00;99.90;;;;;;5017495;28;20787;-76
2023/01/04 11:37:36;;;;;;;4.83;4.10;;;6.10;99.90;;;;;;5022923;28;20525;-76
2023/01/04 11:40:23;;;;;;;4.03;3.63;;;6.10;99.90;;;;;;5025926;28;20543;-76
2023/01/04 11:43:10;;;;;;;3.70;3.30;;;6.20;99.90;;;;;;5011010;28;20477;-76
2023/01/04 11:45:37;;;;;;;4.68;4.22;;;6.50;99.90;;;;;;5018117;28;20551;-76
2023/01/04 11:48:05;;;;;;;3.23;2.67;;;6.60;99.90;;;;;;5014142;28;20295;-76
2023/01/04 11:50:39;;;;;;;5.90;4.17;;;6.70;99.90;;;;;;5014443;28;20461;-76
2023/01/04 11:53:28;;;;;;;4.67;3.73;;;6.70;99.90;;;;;;5017674;28;20485;-76
2023/01/04 11:56:15;;;;;;;4.70;3.87;;;6.70;99.90;;;;;;5023652;28;21015;-76
2023/01/04 11:58:44;;;;;;;5.30;3.03;;;6.60;99.90;;;;;;5018296;28;20498;-76
2023/01/04 12:01:23;;;;;;;5.77;3.80;;;6.70;99.90;;;;;;5011248;28;20459;-76
2023/01/04 12:03:51;;;;;;;5.40;4.40;;;6.60;99.90;;;;;;5012674;28;20475;-76
2023/01/04 12:06:21;;;;;;;8.50;3.70;;;6.70;99.90;;;;;;5015452;28;20505;-76
2023/01/04 12:08:49;;;;;;;5.40;3.20;;;6.70;99.90;;;;;;5016129;28;20786;-75
2023/01/04 12:11:28;;;;;;;3.87;2.43;;;6.60;99.90;;;;;;5021295;28;20798;-76
2023/01/04 12:13:57;;;;;;;4.23;3.70;;;6.40;99.90;;;;;;5023338;28;20466;-76
2023/01/04 12:16:38;;;;;;;3.20;2.90;;;6.40;99.90;;;;;;5005108;28;20514;-76
2023/01/04 12:19:05;;;;;;;4.17;3.77;;;6.50;99.90;;;;;;5008407;28;20571;-76
2023/01/04 12:21:34;;;;;;;6.83;3.77;;;6.70;99.90;;;;;;5007961;28;20468;-76
2023/01/04 12:24:05;;;;;;;6.13;4.47;;;6.70;99.90;;;;;;5011297;28;20515;-76
2023/01/04 12:26:41;;;;;;;8.67;4.87;;;6.70;99.90;;;;;;5008841;28;20500;-76
2023/01/04 12:29:42;;;;;;;5.53;3.73;;;6.70;99.90;;;;;;5010740;28;20858;-76
2023/01/04 12:32:54;;;;;;;5.67;4.17;;;6.70;99.90;;;;;;5015997;28;20662;-76
2023/01/04 12:36:05;;;;;;;5.80;4.17;;;6.60;99.90;;;;;;5010787;28;20528;-76
2023/01/04 12:38:58;;;;;;;6.43;4.77;;;6.60;99.90;;;;;;5012227;28;20465;-76
2023/01/04 12:41:59;;;;;;;7.40;4.60;;;6.60;99.90;;;;;;5004554;28;20494;-76
2023/01/04 12:45:02;;;;;;;5.60;5.00;;;6.70;99.90;;;;;;5010860;28;20465;-76
2023/01/04 12:50:30;;;;;;;7.93;4.90;;;6.90;99.90;;;;;;5018096;28;20469;-76
2023/01/04 12:53:02;;;;;;;7.90;4.90;;;7.10;99.90;;;;;;5018589;28;20461;-76
2023/01/04 12:55:59;;;;;;;6.37;4.70;;;7.00;99.90;;;;;;5022713;28;20465;-76
2023/01/04 12:59:03;;;;;;;6.83;3.60;;;7.00;99.90;;;;;;5016449;28;20543;-76
2023/01/04 13:01:31;;;;;;;4.33;3.93;;;7.10;99.90;;;;;;5025184;28;20464;-76
2023/01/04 13:04:01;;;;;;;4.67;3.80;;;6.80;99.90;;;;;;5020925;28;20488;-76
2023/01/04 13:06:31;;;;;;;6.17;5.00;;;6.70;99.90;;;;;;5020125;28;20522;-76
2023/01/04 13:08:58;;;;;;;4.20;2.87;;;6.60;99.90;;;;;;5020987;28;20907;-76
2023/01/04 13:11:55;;;;;;;6.37;3.17;;;6.50;99.90;;;;;;5023712;28;20927;-75
2023/01/04 13:14:31;;;;;;;8.10;4.20;;;6.50;99.90;;;;;;4999848;28;20500;-76
2023/01/04 13:17:14;;;;;;;4.60;3.60;;;6.50;99.90;;;;;;5032564;28;20495;-76
2023/01/04 13:19:42;;;;;;;6.30;3.90;;;6.70;99.90;;;;;;5014720;28;20450;-76
2023/01/04 13:22:21;;;;;;;6.80;4.20;;;6.20;99.90;;;;;;5023180;28;20458;-76
2023/01/04 13:24:50;;;;;;;3.90;3.50;;;6.20;99.90;;;;;;5012862;28;20466;-76
2023/01/04 13:27:19;;;;;;;9.93;5.57;;;6.20;99.90;;;;;;5011879;28;20555;-76
2023/01/04 13:29:47;;;;;;;11.60;8.13;;;6.20;99.90;;;;;;5019707;28;20579;-76
2023/01/04 13:32:22;;;;;;;29.83;17.23;;;6.30;99.90;;;;;;5015836;28;20966;-76
2023/01/04 13:34:53;;;;;;;29.57;18.83;;;6.40;99.90;;;;;;5015568;28;20514;-76
2023/01/04 13:37:28;;;;;;;5.80;3.70;;;6.40;99.90;;;;;;5030480;28;20489;-76
2023/01/04 13:40:20;;;;;;;6.40;4.45;;;6.20;99.90;;;;;;5028337;28;20469;-76
2023/01/04 13:42:49;;;;;;;8.10;5.93;;;6.20;99.90;;;;;;5019466;28;20239;-76
2023/01/04 13:45:40;;;;;;;6.78;5.82;;;6.10;99.90;;;;;;5020795;28;20918;-77
2023/01/04 13:48:13;;;;;;;13.60;7.60;;;6.10;99.90;;;;;;5024151;28;20196;-78
2023/01/04 13:50:45;;;;;;;8.33;6.40;;;6.00;99.90;;;;;;5019646;28;20452;-76